Time;durP1;ratioP1;P1;durP2;ratioP2;P2;SDS_P1;SDS_P2;PMS_P1;PMS_P2;Temp;Humidity;BMP_temperature;BMP_pressure;BME280_temperature;BME280_humidity;BME280_pressure;Samples;Min_cycle;Max_cycle;Signal;HPM_P1;HPM_P2
2021/10/13 00:00:47;;;;;;;15.23;9.30;;;6.70;99.90;;;;;;5054006;28;20048;-64
2021/10/13 00:03:15;;;;;;;15.70;10.40;;;6.80;99.90;;;;;;5081550;28;20381;-65
2021/10/13 00:05:42;;;;;;;15.80;10.30;;;6.80;99.90;;;;;;5087206;28;20484;-64
2021/10/13 00:08:09;;;;;;;15.57;10.57;;;6.70;99.90;;;;;;5081015;28;20384;-64
2021/10/13 00:10:37;;;;;;;14.63;10.13;;;6.80;99.90;;;;;;5071305;28;20071;-65
2021/10/13 00:13:05;;;;;;;14.43;10.00;;;6.70;99.90;;;;;;5071490;28;20040;-64
2021/10/13 00:15:32;;;;;;;16.17;10.05;;;6.70;99.90;;;;;;5071310;28;20044;-64
2021/10/13 00:17:59;;;;;;;16.67;10.25;;;6.70;99.90;;;;;;5071230;28;20061;-64
2021/10/13 00:20:27;;;;;;;18.13;11.10;;;6.60;99.90;;;;;;5074841;28;20529;-64
2021/10/13 00:22:54;;;;;;;18.00;11.15;;;6.70;99.90;;;;;;5076716;28;20040;-64
2021/10/13 00:25:21;;;;;;;17.00;10.77;;;6.80;99.90;;;;;;5082552;28;20049;-64
2021/10/13 00:27:49;;;;;;;16.02;10.73;;;6.80;99.90;;;;;;5090630;28;20414;-65
2021/10/13 00:30:16;;;;;;;15.45;10.65;;;6.80;99.90;;;;;;5085025;28;20044;-64
2021/10/13 00:32:44;;;;;;;16.42;10.57;;;6.80;99.90;;;;;;5090076;28;20071;-64
2021/10/13 00:35:11;;;;;;;17.63;10.60;;;6.80;99.90;;;;;;5082916;28;20044;-64
2021/10/13 00:37:39;;;;;;;15.63;9.77;;;6.80;99.90;;;;;;5089352;28;20409;-64
2021/10/13 00:40:08;;;;;;;18.83;11.20;;;6.80;99.90;;;;;;5085480;28;20047;-65
2021/10/13 00:42:35;;;;;;;17.80;11.27;;;6.80;99.90;;;;;;5088810;28;20040;-65
2021/10/13 00:45:06;;;;;;;14.55;9.52;;;6.80;99.90;;;;;;5089326;28;20528;-64
2021/10/13 00:47:34;;;;;;;15.82;10.63;;;6.90;99.90;;;;;;5088735;28;20051;-65
2021/10/13 00:50:09;;;;;;;16.73;10.80;;;6.80;99.90;;;;;;5089215;28;20564;-64
2021/10/13 00:52:41;;;;;;;17.52;10.43;;;6.90;99.90;;;;;;5068697;28;20041;-64
2021/10/13 00:55:17;;;;;;;17.58;10.93;;;6.90;99.90;;;;;;5070710;28;20453;-64
2021/10/13 00:57:46;;;;;;;15.70;10.18;;;6.80;99.90;;;;;;5070629;28;20044;-64
2021/10/13 01:00:14;;;;;;;16.33;10.73;;;6.80;99.90;;;;;;5069991;28;20072;-64
2021/10/13 01:02:54;;;;;;;17.58;10.52;;;6.70;99.90;;;;;;5079970;28;20055;-64
2021/10/13 01:05:46;;;;;;;17.02;10.43;;;6.70;99.90;;;;;;5078079;28;20045;-64
2021/10/13 01:08:46;;;;;;;14.52;9.98;;;6.60;99.90;;;;;;5071002;28;20072;-64
2021/10/13 01:11:24;;;;;;;16.38;10.65;;;6.60;99.90;;;;;;5074170;28;20048;-64
2021/10/13 01:14:09;;;;;;;14.18;9.70;;;6.60;99.90;;;;;;5069969;28;20044;-64
2021/10/13 01:16:50;;;;;;;16.30;9.82;;;6.50;99.90;;;;;;5065552;28;20054;-64
2021/10/13 01:19:27;;;;;;;13.88;9.65;;;6.50;99.90;;;;;;5066749;28;20047;-64
2021/10/13 01:22:18;;;;;;;14.57;9.60;;;6.40;99.90;;;;;;5086911;28;20033;-65
2021/10/13 01:25:18;;;;;;;10.50;6.90;;;6.50;99.90;;;;;;5075831;28;20046;-64
2021/10/13 01:28:09;;;;;;;14.15;9.93;;;6.50;99.90;;;;;;5073701;28;20055;-65
2021/10/13 01:30:42;;;;;;;13.88;10.23;;;6.50;99.90;;;;;;5079316;28;20044;-64
2021/10/13 01:33:37;;;;;;;15.98;9.85;;;6.40;99.90;;;;;;5067323;28;20059;-64
2021/10/13 01:36:11;;;;;;;18.50;10.18;;;6.50;99.90;;;;;;5070707;28;20050;-65
2021/10/13 01:38:44;;;;;;;15.13;10.48;;;6.50;99.90;;;;;;5072428;28;20037;-65
2021/10/13 01:41:12;;;;;;;;;;;6.50;99.90;;;;;;5074510;28;20036;-65
2021/10/13 01:43:44;;;;;;;16.55;9.82;;;6.50;99.90;;;;;;5075035;28;20351;-65
2021/10/13 01:46:14;;;;;;;16.77;10.63;;;6.50;99.90;;;;;;5072574;28;20059;-64
2021/10/13 01:48:43;;;;;;;16.20;10.18;;;6.50;99.90;;;;;;5087373;28;20055;-64
2021/10/13 01:51:13;;;;;;;16.02;10.85;;;6.50;99.90;;;;;;5082807;28;20498;-64
2021/10/13 01:53:42;;;;;;;15.00;10.60;;;6.50;99.90;;;;;;5068951;28;20127;-64
2021/10/13 01:56:10;;;;;;;16.35;10.13;;;6.60;99.90;;;;;;5068724;28;20430;-64
2021/10/13 01:58:38;;;;;;;16.25;10.20;;;6.60;99.90;;;;;;5069700;28;20495;-64
2021/10/13 02:01:10;;;;;;;15.15;10.55;;;6.60;99.90;;;;;;5070140;28;20040;-64
2021/10/13 02:03:39;;;;;;;14.85;9.65;;;6.60;99.90;;;;;;5070994;28;20028;-65
2021/10/13 02:06:07;;;;;;;16.92;10.13;;;6.60;99.90;;;;;;5073690;28;20037;-64
2021/10/13 02:08:37;;;;;;;15.25;9.73;;;6.70;99.90;;;;;;5073889;28;20044;-65
2021/10/13 02:11:08;;;;;;;13.32;9.55;;;6.60;99.90;;;;;;5064731;28;20290;-64
2021/10/13 02:13:37;;;;;;;17.17;10.30;;;6.60;99.90;;;;;;5079861;28;20498;-64
2021/10/13 02:16:06;;;;;;;17.40;9.75;;;6.70;99.90;;;;;;5085843;28;20067;-64
2021/10/13 02:18:34;;;;;;;16.40;10.32;;;6.60;99.90;;;;;;5082949;28;20040;-64
2021/10/13 02:21:04;;;;;;;15.68;9.68;;;6.60;99.90;;;;;;5074356;28;20502;-64
2021/10/13 02:23:36;;;;;;;13.80;9.45;;;6.60;99.90;;;;;;5069087;28;20035;-65
2021/10/13 02:26:17;;;;;;;16.88;9.38;;;6.60;99.90;;;;;;5063065;28;20041;-64
2021/10/13 02:28:50;;;;;;;16.00;10.13;;;6.60;99.90;;;;;;5076269;28;20482;-64
2021/10/13 02:31:17;;;;;;;13.25;9.25;;;6.60;99.90;;;;;;5075895;28;20049;-65
2021/10/13 02:33:44;;;;;;;11.90;9.05;;;6.60;99.90;;;;;;5067798;28;20041;-64
2021/10/13 02:36:12;;;;;;;14.18;8.90;;;6.60;99.90;;;;;;5087982;28;20036;-65
2021/10/13 02:38:39;;;;;;;15.32;8.82;;;6.60;99.90;;;;;;5085252;28;20485;-64
2021/10/13 02:41:06;;;;;;;13.95;8.63;;;6.50;99.90;;;;;;5090687;28;20039;-64
2021/10/13 02:43:35;;;;;;;13.55;9.07;;;6.50;99.90;;;;;;5092208;28;20055;-64
2021/10/13 02:46:25;;;;;;;14.55;9.23;;;6.50;99.90;;;;;;5081859;28;20044;-64
2021/10/13 02:49:05;;;;;;;13.80;8.57;;;6.60;99.90;;;;;;5086375;28;20048;-64
2021/10/13 02:52:07;;;;;;;15.10;8.85;;;6.60;99.90;;;;;;5075288;28;20482;-64
2021/10/13 02:54:56;;;;;;;13.60;8.45;;;6.60;99.90;;;;;;5017678;28;20079;-64
2021/10/13 02:57:32;;;;;;;16.75;8.57;;;6.60;99.90;;;;;;5050020;28;20223;-64
2021/10/13 03:00:04;;;;;;;13.57;8.27;;;6.60;99.90;;;;;;5049399;28;20045;-64
2021/10/13 03:02:44;;;;;;;11.65;7.72;;;6.60;99.90;;;;;;5048553;28;20064;-64
2021/10/13 03:05:13;;;;;;;14.70;8.77;;;6.60;99.90;;;;;;5048466;28;20149;-64
2021/10/13 03:07:43;;;;;;;15.10;8.57;;;6.60;99.90;;;;;;5049111;28;20060;-64
2021/10/13 03:10:12;;;;;;;13.35;8.15;;;6.60;99.90;;;;;;5050845;28;20458;-64
2021/10/13 03:12:59;;;;;;;13.18;7.90;;;6.60;99.90;;;;;;5033811;28;20561;-64
2021/10/13 03:15:29;;;;;;;16.48;7.97;;;6.60;99.90;;;;;;5049004;28;20044;-64
2021/10/13 03:17:58;;;;;;;12.13;7.70;;;6.60;99.90;;;;;;5048183;28;20127;-64
2021/10/13 03:20:27;;;;;;;13.65;8.55;;;6.60;99.90;;;;;;5048876;28;20527;-64
2021/10/13 03:22:59;;;;;;;15.10;8.90;;;6.60;99.90;;;;;;5049472;28;20144;-64
2021/10/13 03:25:31;;;;;;;16.02;8.45;;;6.70;99.90;;;;;;5049984;28;20075;-64
2021/10/13 03:28:00;;;;;;;15.75;8.70;;;6.70;99.90;;;;;;5049022;28;20068;-64
2021/10/13 03:30:29;;;;;;;15.52;8.52;;;6.70;99.90;;;;;;5052525;28;20049;-64
2021/10/13 03:32:57;;;;;;;13.60;8.55;;;6.70;99.90;;;;;;5065345;28;20327;-64
2021/10/13 03:35:29;;;;;;;15.38;8.65;;;6.80;99.90;;;;;;5078508;28;20130;-64
2021/10/13 03:37:58;;;;;;;13.35;9.40;;;6.80;99.90;;;;;;5083309;28;20467;-64
2021/10/13 03:40:26;;;;;;;16.63;8.77;;;6.80;99.90;;;;;;5076736;28;20048;-64
2021/10/13 03:42:54;;;;;;;15.40;9.43;;;6.70;99.90;;;;;;5077187;28;20044;-66
2021/10/13 03:45:23;;;;;;;15.82;9.52;;;6.70;99.90;;;;;;5069981;28;20063;-65
2021/10/13 03:47:50;;;;;;;15.05;9.40;;;6.80;99.90;;;;;;5085070;28;20055;-65
2021/10/13 03:50:20;;;;;;;14.57;9.68;;;6.80;99.90;;;;;;5088283;28;20044;-65
2021/10/13 03:52:48;;;;;;;14.35;8.57;;;6.80;99.90;;;;;;5075958;28;20131;-65
2021/10/13 03:55:16;;;;;;;13.95;8.68;;;6.70;99.90;;;;;;5071286;28;20178;-65
2021/10/13 03:57:44;;;;;;;17.73;9.98;;;6.80;99.90;;;;;;5071540;28;20051;-66
2021/10/13 04:00:14;;;;;;;22.27;11.88;;;6.80;99.90;;;;;;5071845;28;20411;-64
2021/10/13 04:02:41;;;;;;;15.73;9.52;;;6.80;99.90;;;;;;5071175;28;20403;-64
2021/10/13 04:05:09;;;;;;;14.25;8.90;;;6.80;99.90;;;;;;5071934;28;20379;-64
2021/10/13 04:07:37;;;;;;;13.02;9.32;;;6.80;99.90;;;;;;5053816;28;20119;-64
2021/10/13 04:10:08;;;;;;;14.38;9.65;;;6.80;99.90;;;;;;5071725;28;20044;-64
2021/10/13 04:12:37;;;;;;;14.38;8.75;;;6.80;99.90;;;;;;5071430;28;20056;-64
2021/10/13 04:15:06;;;;;;;11.93;8.43;;;6.80;99.90;;;;;;5081594;28;20175;-64
2021/10/13 04:17:35;;;;;;;15.90;9.33;;;6.80;99.90;;;;;;5062829;28;20071;-64
2021/10/13 04:20:05;;;;;;;13.57;8.65;;;6.80;99.90;;;;;;5078655;28;20361;-64
2021/10/13 04:22:33;;;;;;;16.70;9.57;;;6.80;99.90;;;;;;5084283;28;20044;-65
2021/10/13 04:25:01;;;;;;;13.85;9.60;;;6.80;99.90;;;;;;5075267;28;20037;-64
2021/10/13 04:27:29;;;;;;;18.35;9.90;;;6.70;99.90;;;;;;5084101;28;20044;-64
2021/10/13 04:29:56;;;;;;;14.70;9.20;;;6.80;99.90;;;;;;5087122;28;20062;-64
2021/10/13 04:32:23;;;;;;;14.10;8.13;;;6.80;99.90;;;;;;5086175;28;20055;-64
2021/10/13 04:34:51;;;;;;;13.70;7.93;;;6.70;99.90;;;;;;5083332;28;20204;-65
2021/10/13 04:37:18;;;;;;;13.40;8.43;;;6.70;99.90;;;;;;5085767;28;20494;-65
2021/10/13 04:39:45;;;;;;;14.52;8.48;;;6.70;99.90;;;;;;5085723;28;20040;-65
2021/10/13 04:42:13;;;;;;;12.45;7.95;;;6.70;99.90;;;;;;5067877;28;20041;-65
2021/10/13 04:44:40;;;;;;;14.35;8.18;;;6.80;99.90;;;;;;5078492;28;20040;-65
2021/10/13 04:47:08;;;;;;;11.68;7.68;;;6.80;99.90;;;;;;5080781;28;20442;-65
2021/10/13 04:49:35;;;;;;;12.68;8.02;;;6.80;99.90;;;;;;5071535;28;20472;-65
2021/10/13 04:52:02;;;;;;;14.18;9.38;;;6.80;99.90;;;;;;5070504;28;20067;-65
2021/10/13 04:54:30;;;;;;;15.52;8.18;;;6.90;99.90;;;;;;5075007;28;20051;-65
2021/10/13 04:56:57;;;;;;;12.10;7.35;;;6.80;99.90;;;;;;5057149;28;20149;-65
2021/10/13 04:59:24;;;;;;;12.45;6.63;;;6.80;99.90;;;;;;5066512;28;20045;-65
2021/10/13 05:01:52;;;;;;;11.25;7.40;;;6.80;99.90;;;;;;5066375;28;20115;-65
2021/10/13 05:04:19;;;;;;;15.02;8.50;;;6.80;99.90;;;;;;5075236;28;20032;-65
2021/10/13 05:06:47;;;;;;;11.23;7.63;;;6.70;99.90;;;;;;5077813;28;20139;-65
2021/10/13 05:09:15;;;;;;;15.02;8.10;;;6.80;99.90;;;;;;5075925;28;20044;-65
2021/10/13 05:11:42;;;;;;;12.20;8.30;;;6.80;99.90;;;;;;5076220;28;20059;-65
2021/10/13 05:14:10;;;;;;;15.18;8.05;;;6.80;99.90;;;;;;5077304;28;20265;-65
2021/10/13 05:16:40;;;;;;;17.02;8.30;;;6.80;99.90;;;;;;5073809;28;20119;-65
2021/10/13 05:19:08;;;;;;;14.68;8.13;;;6.70;99.90;;;;;;5070466;28;20042;-65
2021/10/13 05:21:36;;;;;;;12.65;8.68;;;6.80;99.90;;;;;;5075405;28;20041;-65
2021/10/13 05:24:05;;;;;;;14.88;8.85;;;6.80;99.90;;;;;;5078296;28;20036;-65
2021/10/13 05:26:33;;;;;;;13.18;8.70;;;6.70;99.90;;;;;;5066693;28;20163;-65
2021/10/13 05:29:00;;;;;;;13.23;8.93;;;6.80;99.90;;;;;;5069565;28;20040;-65
2021/10/13 05:31:27;;;;;;;17.38;9.32;;;6.80;99.90;;;;;;5070514;28;20490;-65
2021/10/13 05:33:55;;;;;;;14.55;9.27;;;6.70;99.90;;;;;;5072234;28;20135;-65
2021/10/13 05:36:22;;;;;;;19.20;9.82;;;6.70;99.90;;;;;;5077456;28;20063;-65
2021/10/13 05:38:55;;;;;;;17.88;10.13;;;6.70;99.90;;;;;;5070838;28;20048;-65
2021/10/13 05:41:23;;;;;;;12.35;8.88;;;6.70;99.90;;;;;;5068212;28;20036;-65
2021/10/13 05:43:50;;;;;;;15.45;9.90;;;6.70;99.90;;;;;;5070010;28;20047;-65
2021/10/13 05:46:18;;;;;;;14.40;10.07;;;6.70;99.90;;;;;;5073782;28;20088;-65
2021/10/13 05:48:45;;;;;;;15.93;9.75;;;6.70;99.90;;;;;;5075194;28;20095;-65
2021/10/13 05:51:14;;;;;;;14.65;9.95;;;6.70;99.90;;;;;;5078291;28;20040;-65
2021/10/13 05:53:41;;;;;;;15.80;10.18;;;6.70;99.90;;;;;;5065560;28;20392;-65
2021/10/13 05:56:08;;;;;;;15.40;10.07;;;6.70;99.90;;;;;;5072432;28;20045;-65
2021/10/13 05:58:38;;;;;;;17.27;10.23;;;6.80;99.90;;;;;;5060547;28;20094;-65
2021/10/13 06:01:05;;;;;;;16.95;10.18;;;6.70;99.90;;;;;;5070833;28;20049;-66
2021/10/13 06:03:33;;;;;;;14.57;9.98;;;6.70;99.90;;;;;;5072220;28;20489;-65
2021/10/13 06:06:00;;;;;;;16.98;10.55;;;6.70;99.90;;;;;;5068857;28;20155;-65
2021/10/13 06:08:28;;;;;;;12.93;9.40;;;6.70;99.90;;;;;;5071237;28;20048;-65
2021/10/13 06:10:55;;;;;;;15.65;10.30;;;6.70;99.90;;;;;;5071567;28;20121;-66
2021/10/13 06:13:22;;;;;;;17.73;9.68;;;6.80;99.90;;;;;;5071346;28;20045;-66
2021/10/13 06:16:16;;;;;;;19.27;10.35;;;6.80;99.90;;;;;;5086224;28;20017;-66
2021/10/13 06:18:43;;;;;;;19.05;10.35;;;6.80;99.90;;;;;;5071455;28;20337;-65
2021/10/13 06:21:11;;;;;;;16.92;11.32;;;6.80;99.90;;;;;;5068099;28;20063;-65
2021/10/13 06:23:38;;;;;;;17.23;10.40;;;6.80;99.90;;;;;;5068392;28;20043;-65
2021/10/13 06:26:06;;;;;;;21.90;12.82;;;6.80;99.90;;;;;;5057545;28;20499;-65
2021/10/13 06:28:34;;;;;;;15.38;10.40;;;6.90;99.90;;;;;;5070913;28;20044;-65
2021/10/13 06:31:01;;;;;;;17.05;10.80;;;7.00;99.90;;;;;;5071332;28;20041;-65
2021/10/13 06:33:32;;;;;;;15.70;9.30;;;7.10;99.90;;;;;;5071077;28;20045;-65
2021/10/13 06:36:07;;;;;;;17.58;9.77;;;7.10;99.90;;;;;;5070012;28;20033;-65
2021/10/13 06:38:35;;;;;;;14.20;9.90;;;7.10;99.90;;;;;;5069819;28;20497;-65
2021/10/13 06:41:06;;;;;;;16.27;10.05;;;7.20;99.90;;;;;;5071751;28;20051;-65
2021/10/13 06:43:33;;;;;;;13.50;9.07;;;7.30;99.90;;;;;;5068533;28;20059;-65
2021/10/13 06:46:00;;;;;;;20.05;10.93;;;7.30;99.90;;;;;;5063313;28;20047;-65
2021/10/13 06:48:28;;;;;;;17.35;10.80;;;7.40;99.90;;;;;;5061403;28;20086;-65
2021/10/13 06:50:55;;;;;;;13.35;9.43;;;7.40;99.90;;;;;;5074329;28;20158;-66
2021/10/13 06:53:22;;;;;;;17.05;10.48;;;7.40;99.90;;;;;;5073651;28;20047;-65
2021/10/13 06:55:50;;;;;;;13.65;9.80;;;7.40;99.90;;;;;;5075195;28;20059;-64
2021/10/13 06:58:17;;;;;;;14.50;8.82;;;7.50;99.90;;;;;;5069475;28;20035;-66
2021/10/13 07:00:44;;;;;;;13.07;8.57;;;7.50;99.90;;;;;;5076586;28;20040;-65
2021/10/13 07:03:12;;;;;;;12.00;8.48;;;7.50;99.90;;;;;;5076893;28;20082;-64
2021/10/13 07:05:40;;;;;;;14.43;8.95;;;7.50;99.90;;;;;;5072508;28;20419;-64
2021/10/13 07:08:07;;;;;;;16.67;9.48;;;7.50;99.90;;;;;;5069161;28;20258;-64
2021/10/13 07:10:34;;;;;;;14.60;8.88;;;7.50;99.90;;;;;;5064094;28;20041;-64
2021/10/13 07:13:02;;;;;;;16.02;10.10;;;7.60;99.90;;;;;;5072013;28;20452;-64
2021/10/13 07:15:29;;;;;;;12.52;8.82;;;7.70;99.90;;;;;;5077340;28;20050;-64
2021/10/13 07:17:56;;;;;;;14.35;9.68;;;7.70;99.90;;;;;;5070693;28;20025;-64
2021/10/13 07:20:24;;;;;;;15.48;9.68;;;7.70;99.90;;;;;;5072881;28;20401;-65
2021/10/13 07:22:52;;;;;;;14.15;9.50;;;7.70;99.90;;;;;;5071328;28;20513;-64
2021/10/13 07:25:24;;;;;;;20.83;11.75;;;7.70;99.90;;;;;;5053363;28;20515;-64
2021/10/13 07:27:58;;;;;;;14.07;8.88;;;7.70;99.90;;;;;;5072763;28;20040;-64
2021/10/13 07:30:26;;;;;;;15.85;11.05;;;7.80;99.90;;;;;;5072796;28;20370;-65
2021/10/13 07:32:53;;;;;;;16.10;9.68;;;7.80;99.90;;;;;;5070264;28;20136;-65
2021/10/13 07:35:22;;;;;;;14.23;9.55;;;7.70;99.90;;;;;;5058481;28;20119;-64
2021/10/13 07:37:51;;;;;;;15.90;10.15;;;7.80;99.90;;;;;;5071788;28;20551;-65
2021/10/13 07:40:19;;;;;;;14.98;8.95;;;8.00;99.90;;;;;;5074196;28;20491;-65
2021/10/13 07:42:47;;;;;;;14.65;9.15;;;8.20;99.90;;;;;;5078053;28;20048;-66
2021/10/13 07:45:15;;;;;;;13.23;8.45;;;8.40;99.90;;;;;;5074391;28;20147;-65
2021/10/13 07:47:42;;;;;;;17.38;9.23;;;8.50;99.90;;;;;;5069582;28;20045;-65
2021/10/13 07:50:11;;;;;;;15.68;9.70;;;8.60;99.90;;;;;;5056350;28;20048;-65
2021/10/13 07:52:38;;;;;;;13.88;8.73;;;8.60;99.90;;;;;;5072809;28;20051;-65
2021/10/13 07:55:06;;;;;;;12.85;8.82;;;8.40;99.90;;;;;;5072600;28;20052;-65
2021/10/13 07:57:34;;;;;;;13.80;9.57;;;8.40;99.90;;;;;;5074063;28;20429;-65
2021/10/13 08:00:01;;;;;;;14.60;9.65;;;8.30;99.90;;;;;;5074329;28;20067;-64
2021/10/13 08:02:30;;;;;;;15.52;9.93;;;8.10;99.90;;;;;;5059626;28;20053;-64
2021/10/13 08:04:57;;;;;;;13.90;9.95;;;8.00;99.90;;;;;;5064870;28;20124;-65
2021/10/13 08:07:25;;;;;;;23.48;12.75;;;8.00;99.90;;;;;;5081886;28;20097;-65
2021/10/13 08:09:52;;;;;;;15.43;10.13;;;8.10;99.90;;;;;;5082480;28;20123;-65
2021/10/13 08:12:19;;;;;;;14.52;9.40;;;8.10;99.90;;;;;;5087985;28;20436;-65
2021/10/13 08:14:46;;;;;;;15.05;9.77;;;8.00;99.90;;;;;;5084962;28;20047;-64
2021/10/13 08:17:14;;;;;;;14.15;9.18;;;8.10;99.90;;;;;;5063912;28;20494;-66
2021/10/13 08:19:41;;;;;;;14.25;9.23;;;8.30;99.90;;;;;;5075468;28;20047;-64
2021/10/13 08:22:08;;;;;;;15.45;9.15;;;8.50;99.90;;;;;;5077818;28;20043;-65
2021/10/13 08:24:36;;;;;;;13.07;8.73;;;8.60;99.90;;;;;;5079013;28;20036;-65
2021/10/13 08:27:03;;;;;;;12.23;8.60;;;8.70;99.90;;;;;;5075210;28;20052;-65
2021/10/13 08:29:31;;;;;;;14.70;8.63;;;8.80;99.90;;;;;;5077207;28;20049;-66
2021/10/13 08:31:58;;;;;;;13.55;7.93;;;9.00;99.90;;;;;;5074305;28;20040;-65
2021/10/13 08:34:25;;;;;;;15.52;7.78;;;9.30;99.90;;;;;;5077385;28;20058;-66
2021/10/13 08:36:53;;;;;;;11.95;6.95;;;9.50;99.90;;;;;;5075071;28;20041;-66
2021/10/13 08:39:20;;;;;;;12.02;7.25;;;9.70;99.90;;;;;;5072547;28;20043;-66
2021/10/13 08:41:47;;;;;;;11.98;7.82;;;9.70;99.90;;;;;;5082661;28;20479;-65
2021/10/13 08:44:16;;;;;;;11.57;8.10;;;9.80;99.90;;;;;;5082682;28;20036;-66
2021/10/13 08:46:43;;;;;;;9.57;6.30;;;9.70;99.90;;;;;;5086277;28;20140;-66
2021/10/13 08:49:12;;;;;;;9.27;6.32;;;9.60;99.90;;;;;;5082521;28;20044;-66
2021/10/13 08:51:51;;;;;;;9.43;6.07;;;9.40;99.90;;;;;;5074948;28;20043;-65
2021/10/13 08:54:19;;;;;;;9.98;5.97;;;9.50;99.90;;;;;;5070548;28;20048;-65
2021/10/13 08:56:47;;;;;;;9.38;6.28;;;9.80;99.90;;;;;;5069698;28;20040;-65
2021/10/13 08:59:40;;;;;;;11.52;6.32;;;9.90;99.90;;;;;;5070837;28;20045;-64
2021/10/13 09:02:10;;;;;;;9.02;5.72;;;10.10;99.90;;;;;;5056807;28;20039;-66
2021/10/13 09:05:06;;;;;;;;;;;10.20;99.90;;;;;;5075210;28;20048;-65
2021/10/13 09:07:34;;;;;;;10.85;6.32;;;10.20;99.90;;;;;;5069664;28;19920;-66
2021/10/13 09:10:06;;;;;;;8.55;6.10;;;10.30;99.90;;;;;;5085475;28;20044;-66
2021/10/13 09:12:36;;;;;;;12.23;6.82;;;10.30;99.90;;;;;;5088101;28;20048;-66
2021/10/13 09:15:07;;;;;;;13.82;6.82;;;10.30;99.90;;;;;;5086078;28;20044;-66
2021/10/13 09:17:56;;;;;;;7.30;5.47;;;10.30;99.90;;;;;;5076787;28;20127;-66
2021/10/13 09:20:28;;;;;;;9.93;6.20;;;10.20;99.90;;;;;;5076408;28;20052;-66
2021/10/13 09:23:14;;;;;;;12.82;7.28;;;10.10;99.90;;;;;;5075468;28;20040;-66
2021/10/13 09:25:59;;;;;;;9.27;6.53;;;9.90;99.90;;;;;;5081709;28;20085;-66
2021/10/13 09:28:26;;;;;;;10.57;6.10;;;10.00;99.90;;;;;;5078259;28;20539;-66
2021/10/13 09:30:53;;;;;;;11.30;6.25;;;9.90;99.90;;;;;;5084150;28;20508;-66
2021/10/13 09:33:21;;;;;;;13.18;7.00;;;10.10;99.90;;;;;;5066275;28;20086;-66
2021/10/13 09:35:51;;;;;;;9.30;5.97;;;10.30;99.90;;;;;;5068624;28;20042;-66
2021/10/13 09:38:24;;;;;;;12.43;6.38;;;10.70;99.90;;;;;;5060624;28;20123;-66
2021/10/13 09:40:59;;;;;;;8.50;5.15;;;10.90;99.90;;;;;;5073271;28;20044;-66
2021/10/13 09:43:32;;;;;;;9.27;5.43;;;11.00;99.90;;;;;;5070394;28;20052;-66
2021/10/13 09:46:11;;;;;;;8.95;4.60;;;11.00;99.90;;;;;;5073941;28;20048;-66
2021/10/13 09:48:43;;;;;;;9.13;4.32;;;11.20;99.90;;;;;;5067329;28;20051;-66
2021/10/13 09:51:23;;;;;;;9.57;4.57;;;11.50;99.90;;;;;;5077474;28;20025;-66
2021/10/13 09:53:52;;;;;;;9.82;4.40;;;11.10;99.90;;;;;;5069106;28;20049;-66
2021/10/13 09:56:34;;;;;;;5.95;3.88;;;10.70;99.90;;;;;;5066422;28;20037;-65
2021/10/13 09:59:12;;;;;;;;;;;10.40;99.90;;;;;;5070155;28;20054;-65
2021/10/13 10:01:46;;;;;;;9.90;6.07;;;10.20;99.90;;;;;;5067882;28;19947;-65
2021/10/13 10:04:20;;;;;;;11.48;4.95;;;10.30;99.90;;;;;;5072413;28;20441;-65
2021/10/13 10:06:59;;;;;;;16.35;6.75;;;10.40;99.90;;;;;;5073520;28;20192;-66
2021/10/13 10:09:27;;;;;;;8.30;4.03;;;10.80;99.90;;;;;;5064480;28;20052;-66
2021/10/13 10:12:12;;;;;;;8.38;4.25;;;11.00;99.90;;;;;;5066673;28;20068;-66
2021/10/13 10:14:45;;;;;;;9.98;5.10;;;11.40;99.90;;;;;;5081033;28;20047;-65
2021/10/13 10:17:33;;;;;;;8.32;4.78;;;11.50;99.90;;;;;;5083334;28;20726;-66
2021/10/13 10:20:01;;;;;;;7.95;3.42;;;11.20;99.90;;;;;;5070712;28;20403;-65
2021/10/13 10:22:45;;;;;;;8.20;4.20;;;11.10;99.90;;;;;;5068713;28;20052;-66
2021/10/13 10:25:12;;;;;;;8.45;3.90;;;10.80;99.90;;;;;;5064801;28;20045;-66
2021/10/13 10:27:40;;;;;;;10.13;4.13;;;10.60;99.90;;;;;;5070365;28;20040;-66
2021/10/13 10:30:13;;;;;;;7.18;3.72;;;10.80;99.90;;;;;;5081859;28;20051;-66
2021/10/13 10:33:02;;;;;;;5.93;3.30;;;11.20;99.90;;;;;;5066664;28;20076;-66
2021/10/13 10:35:42;;;;;;;7.45;3.10;;;11.70;99.90;;;;;;5076013;28;20064;-66
2021/10/13 10:38:12;;;;;;;5.80;2.90;;;11.90;99.90;;;;;;5067563;28;20040;-66
2021/10/13 10:40:40;;;;;;;6.70;3.60;;;12.00;99.90;;;;;;5075065;28;20494;-66
2021/10/13 10:43:33;;;;;;;6.82;3.45;;;12.20;99.90;;;;;;5070899;28;20047;-66
2021/10/13 10:46:01;;;;;;;7.85;3.78;;;12.00;99.90;;;;;;5075307;28;20099;-66
2021/10/13 10:48:48;;;;;;;5.70;2.90;;;11.80;99.90;;;;;;5075329;28;20057;-66
2021/10/13 10:51:15;;;;;;;6.40;2.95;;;11.70;99.90;;;;;;5070113;28;20225;-66
2021/10/13 10:53:44;;;;;;;6.47;2.67;;;11.80;99.90;;;;;;5075106;28;20044;-66
2021/10/13 10:56:18;;;;;;;5.28;2.30;;;11.90;99.90;;;;;;5055522;28;20067;-65
2021/10/13 10:59:15;;;;;;;5.80;2.42;;;11.70;99.90;;;;;;5075281;28;20040;-65
2021/10/13 11:02:05;;;;;;;6.43;2.58;;;11.70;99.90;;;;;;5073436;28;20055;-66
2021/10/13 11:04:33;;;;;;;4.93;2.78;;;11.60;99.90;;;;;;5074463;28;20406;-66
2021/10/13 11:07:03;;;;;;;6.15;2.92;;;11.60;99.90;;;;;;5079014;28;20055;-65
2021/10/13 11:09:31;;;;;;;7.63;3.22;;;11.80;99.90;;;;;;5069487;28;20072;-65
2021/10/13 11:11:58;;;;;;;5.22;2.67;;;12.00;99.90;;;;;;5074120;28;20041;-66
2021/10/13 11:14:25;;;;;;;5.18;2.13;;;12.00;99.90;;;;;;5077171;28;20461;-66
2021/10/13 11:16:58;;;;;;;7.45;2.72;;;12.30;99.90;;;;;;5069270;28;20098;-66
2021/10/13 11:19:29;;;;;;;;;;;12.50;99.90;;;;;;5071771;28;20044;-65
2021/10/13 11:22:06;;;;;;;4.53;2.13;;;12.50;99.90;;;;;;5078022;28;19990;-64
2021/10/13 11:24:35;;;;;;;5.00;2.40;;;12.40;99.90;;;;;;5074067;28;20144;-66
2021/10/13 11:27:03;;;;;;;5.32;2.33;;;12.10;99.90;;;;;;5073140;28;20059;-66
2021/10/13 11:29:33;;;;;;;8.25;2.90;;;11.80;99.90;;;;;;5068698;28;20048;-65
2021/10/13 11:32:13;;;;;;;6.38;2.53;;;12.00;99.90;;;;;;5080631;28;20048;-66
2021/10/13 11:34:43;;;;;;;4.13;1.83;;;12.50;99.90;;;;;;5070852;28;20057;-66
2021/10/13 11:37:11;;;;;;;5.72;1.90;;;13.20;99.90;;;;;;5074432;28;20493;-65
2021/10/13 11:39:44;;;;;;;3.13;1.70;;;13.60;99.90;;;;;;5070995;28;20558;-67
2021/10/13 11:42:16;;;;;;;3.35;1.52;;;13.30;99.90;;;;;;5072424;28;20068;-66
2021/10/13 11:44:50;;;;;;;;;;;13.10;99.90;;;;;;5086028;28;20044;-66
2021/10/13 11:47:35;;;;;;;4.63;1.58;;;13.10;99.90;;;;;;5072142;28;19924;-66
2021/10/13 11:50:06;;;;;;;4.00;1.65;;;13.70;99.90;;;;;;5069587;28;20049;-66
2021/10/13 11:52:38;;;;;;;3.20;1.43;;;14.40;99.90;;;;;;5069945;28;20063;-66
2021/10/13 11:55:09;;;;;;;4.18;1.42;;;14.40;99.90;;;;;;5074207;28;20469;-66
2021/10/13 11:57:38;;;;;;;2.50;1.33;;;14.30;99.90;;;;;;5073905;28;20041;-65
2021/10/13 12:00:16;;;;;;;4.90;1.73;;;14.40;99.90;;;;;;5081249;28;20555;-65
2021/10/13 12:03:01;;;;;;;5.47;1.80;;;14.20;99.90;;;;;;5074499;28;20102;-66
2021/10/13 12:05:32;;;;;;;5.45;2.17;;;14.10;99.90;;;;;;5072343;28;20064;-66
2021/10/13 12:08:02;;;;;;;8.75;2.72;;;13.80;99.90;;;;;;5072467;28;20431;-66
2021/10/13 12:10:44;;;;;;;4.05;1.80;;;13.60;99.90;;;;;;5066641;28;20131;-66
2021/10/13 12:13:11;;;;;;;3.90;1.60;;;13.50;99.90;;;;;;5070664;28;20055;-66
2021/10/13 12:15:42;;;;;;;4.03;1.80;;;13.20;99.90;;;;;;5083045;28;20044;-67
2021/10/13 12:18:24;;;;;;;2.38;1.35;;;13.00;99.90;;;;;;5070848;28;20119;-67
2021/10/13 12:21:01;;;;;;;4.78;1.75;;;13.00;99.90;;;;;;5071840;28;20094;-67
2021/10/13 12:23:31;;;;;;;4.07;1.58;;;13.00;99.90;;;;;;5074512;28;20049;-66
2021/10/13 12:26:09;;;;;;;6.25;2.85;;;13.50;99.90;;;;;;5055733;28;20053;-66
2021/10/13 12:28:38;;;;;;;1.90;1.10;;;16.00;99.90;;;;;;5069640;28;20488;-66
2021/10/13 12:31:11;;;;;;;5.10;1.90;;;19.20;99.90;;;;;;5074877;28;20495;-66
2021/10/13 12:33:41;;;;;;;3.55;1.15;;;21.40;99.90;;;;;;5059105;28;20063;-66
2021/10/13 12:36:20;;;;;;;4.18;1.40;;;21.30;99.90;;;;;;5075084;28;20096;-66
2021/10/13 12:38:54;;;;;;;2.72;1.10;;;19.40;99.90;;;;;;5076500;28;20041;-66
2021/10/13 12:41:28;;;;;;;5.03;2.38;;;17.10;99.90;;;;;;5059062;28;20047;-65
2021/10/13 12:43:56;;;;;;;5.10;1.10;;;15.50;99.90;;;;;;5070469;28;20040;-66
2021/10/13 12:46:31;;;;;;;3.15;1.40;;;14.40;99.90;;;;;;5084518;28;20498;-66
2021/10/13 12:49:10;;;;;;;5.70;1.23;;;14.40;99.90;;;;;;5078482;28;20055;-66
2021/10/13 12:52:03;;;;;;;1.15;0.68;;;17.20;99.90;;;;;;5064195;28;20055;-66
2021/10/13 12:54:41;;;;;;;2.40;0.82;;;21.30;99.90;;;;;;5078266;28;20110;-67
2021/10/13 12:57:12;;;;;;;2.40;0.90;;;24.60;98.50;;;;;;5072060;28;20055;-65
2021/10/13 12:59:39;;;;;;;3.30;0.80;;;25.40;92.80;;;;;;5075344;28;20036;-67
2021/10/13 13:02:07;;;;;;;1.92;0.80;;;26.00;88.10;;;;;;5079602;28;20143;-65
2021/10/13 13:04:35;;;;;;;2.63;0.90;;;24.50;88.00;;;;;;5075522;28;20082;-65
2021/10/13 13:07:06;;;;;;;4.75;1.00;;;24.20;88.20;;;;;;5073527;28;20068;-65